createdAt,value
2017-08-06T00:00:09.566Z,4.70
2017-08-06T00:02:42.315Z,4.20
2017-08-06T00:08:02.401Z,3.20
2017-08-06T00:10:59.589Z,2.73
2017-08-06T00:13:41.340Z,3.67
2017-08-06T00:16:08.925Z,3.30
2017-08-06T00:18:36.688Z,3.00
2017-08-06T00:21:04.670Z,3.10
2017-08-06T00:23:32.913Z,3.33
2017-08-06T00:26:02.244Z,3.20
2017-08-06T00:28:33.016Z,3.10
2017-08-06T00:31:00.814Z,3.70
2017-08-06T00:33:28.547Z,2.80
2017-08-06T00:35:57.163Z,3.23
2017-08-06T00:38:24.928Z,2.70
2017-08-06T00:40:53.721Z,3.40
2017-08-06T00:43:34.283Z,3.00
2017-08-06T00:46:02.010Z,2.83
2017-08-06T00:48:31.349Z,3.23
2017-08-06T00:50:59.079Z,3.23
2017-08-06T00:53:27.457Z,3.30
2017-08-06T00:55:55.927Z,3.40
2017-08-06T00:58:23.526Z,3.10
2017-08-06T01:00:52.118Z,2.83
2017-08-06T01:03:19.885Z,2.70
2017-08-06T01:05:52.565Z,2.70
2017-08-06T01:08:20.342Z,2.67
2017-08-06T01:19:52.048Z,2.70
2017-08-06T01:22:27.086Z,2.77
2017-08-06T01:24:59.877Z,2.70
2017-08-06T01:27:29.283Z,2.63
2017-08-06T01:30:02.458Z,2.70
2017-08-06T01:32:32.908Z,3.07
2017-08-06T01:35:13.862Z,2.83
2017-08-06T01:37:47.803Z,3.15
2017-08-06T01:40:26.186Z,2.90
2017-08-06T01:42:58.544Z,2.75
2017-08-06T01:45:28.074Z,3.00
2017-08-06T01:47:58.608Z,2.90
2017-08-06T01:55:57.345Z,3.25
2017-08-06T01:58:27.141Z,2.70
2017-08-06T02:00:58.598Z,3.00
2017-08-06T02:03:26.476Z,2.83
2017-08-06T02:06:05.601Z,3.20
2017-08-06T02:08:34.361Z,2.90
2017-08-06T02:11:03.478Z,3.13
2017-08-06T02:13:32.721Z,3.07
2017-08-06T02:16:01.252Z,2.87
2017-08-06T02:18:29.080Z,3.10
2017-08-06T02:20:57.265Z,3.20
2017-08-06T02:23:26.541Z,2.77
2017-08-06T02:25:54.974Z,2.80
2017-08-06T02:28:23.040Z,2.75
2017-08-06T02:30:51.529Z,2.77
2017-08-06T02:35:53.486Z,2.80
2017-08-06T02:38:23.311Z,3.20
2017-08-06T02:40:50.929Z,2.77
2017-08-06T02:43:19.139Z,3.07
2017-08-06T02:48:59.010Z,3.30
2017-08-06T02:51:42.557Z,2.45
2017-08-06T02:54:20.183Z,2.53
2017-08-06T02:59:52.247Z,2.42
2017-08-06T03:02:43.367Z,2.50
2017-08-06T03:08:17.415Z,3.17
2017-08-06T03:13:52.993Z,2.70
2017-08-06T03:16:25.863Z,3.40
2017-08-06T03:37:51.097Z,2.70
2017-08-06T03:40:18.586Z,2.20
2017-08-06T03:42:46.101Z,2.67
2017-08-06T03:45:14.345Z,2.80
2017-08-06T03:47:41.845Z,2.90
2017-08-06T03:50:09.365Z,2.70
2017-08-06T03:52:36.855Z,2.50
2017-08-06T03:55:04.365Z,2.93
2017-08-06T03:57:31.870Z,3.57
2017-08-06T04:00:00.158Z,2.67
2017-08-06T04:02:27.653Z,2.87
2017-08-06T04:04:55.156Z,3.10
2017-08-06T04:07:23.442Z,3.40
2017-08-06T04:09:50.953Z,3.33
2017-08-06T04:12:18.457Z,2.60
2017-08-06T04:14:46.727Z,2.53
2017-08-06T04:17:15.036Z,4.03
2017-08-06T04:19:42.529Z,2.90
2017-08-06T04:22:10.026Z,3.50
2017-08-06T04:24:38.306Z,3.23
2017-08-06T04:27:05.806Z,3.43
2017-08-06T04:29:33.317Z,2.70
2017-08-06T04:32:00.818Z,2.85
2017-08-06T04:34:28.350Z,2.80
2017-08-06T05:14:12.281Z,2.65
2017-08-06T05:16:44.461Z,2.33
2017-08-06T05:19:17.404Z,2.97
2017-08-06T05:21:53.310Z,2.60
2017-08-06T05:24:26.914Z,2.63
2017-08-06T05:27:03.789Z,2.60
2017-08-06T05:29:32.413Z,2.93
2017-08-06T05:32:00.041Z,3.40
2017-08-06T05:34:27.708Z,3.00
2017-08-06T05:36:55.289Z,2.80
2017-08-06T05:39:22.838Z,2.67
2017-08-06T05:41:52.117Z,2.70
2017-08-06T05:44:19.709Z,2.80
2017-08-06T05:46:48.055Z,2.80
2017-08-06T05:49:15.598Z,2.77
2017-08-06T05:51:43.118Z,2.70
2017-08-06T05:54:10.688Z,2.40
2017-08-06T05:56:38.265Z,5.50
2017-08-06T05:59:05.846Z,6.50
2017-08-06T06:01:33.352Z,2.73
2017-08-06T06:04:00.980Z,2.53
2017-08-06T06:06:28.667Z,2.53
2017-08-06T06:08:56.960Z,2.70
2017-08-06T06:11:24.511Z,3.03
2017-08-06T06:13:52.025Z,3.13
2017-08-06T06:16:19.570Z,3.57
2017-08-06T06:18:47.085Z,2.77
2017-08-06T06:21:15.361Z,2.67
2017-08-06T06:23:42.911Z,3.07
2017-08-06T06:26:10.429Z,2.57
2017-08-06T06:28:37.955Z,2.70
2017-08-06T06:31:05.468Z,2.30
2017-08-06T06:33:33.002Z,2.50
2017-08-06T06:36:00.515Z,2.70
2017-08-06T06:38:28.014Z,3.20
2017-08-06T06:40:55.517Z,2.40
2017-08-06T06:43:23.019Z,2.50
2017-08-06T06:45:50.557Z,3.03
2017-08-06T06:48:18.822Z,2.27
2017-08-06T06:50:47.090Z,3.40
2017-08-06T06:53:14.606Z,2.53
2017-08-06T06:55:42.105Z,2.40
2017-08-06T06:58:09.614Z,2.80
2017-08-06T07:00:37.143Z,2.53
2017-08-06T07:03:04.934Z,2.17
2017-08-06T07:05:32.442Z,2.37
2017-08-06T07:07:59.959Z,2.30
2017-08-06T07:10:27.481Z,2.10
2017-08-06T07:12:55.019Z,2.50
2017-08-06T07:15:22.546Z,2.60
2017-08-06T07:17:50.041Z,2.47
2017-08-06T07:20:17.546Z,2.00
2017-08-06T07:22:45.131Z,2.13
2017-08-06T07:25:12.634Z,2.10
2017-08-06T07:27:40.147Z,2.40
2017-08-06T07:30:07.645Z,2.00
2017-08-06T07:32:35.130Z,2.33
2017-08-06T07:35:03.426Z,2.43
2017-08-06T07:37:30.930Z,3.10
2017-08-06T07:39:58.454Z,2.50
2017-08-06T07:42:26.021Z,2.90
2017-08-06T07:44:53.548Z,2.73
2017-08-06T07:47:21.861Z,2.60
2017-08-06T07:49:49.394Z,2.40
2017-08-06T07:52:16.939Z,2.60
2017-08-06T07:54:44.492Z,2.17
2017-08-06T07:57:12.806Z,2.13
2017-08-06T07:59:40.341Z,2.47
2017-08-06T08:02:08.605Z,3.20
2017-08-06T08:04:36.164Z,3.00
2017-08-06T08:07:04.445Z,3.60
2017-08-06T08:09:32.023Z,3.47
2017-08-06T08:12:00.349Z,2.70
2017-08-06T08:14:27.865Z,3.07
2017-08-06T08:16:55.402Z,3.30
2017-08-06T08:19:23.770Z,2.37
2017-08-06T08:21:51.419Z,2.67
2017-08-06T08:24:18.954Z,2.60
2017-08-06T08:26:46.484Z,2.77
2017-08-06T08:29:14.906Z,3.00
2017-08-06T08:31:42.430Z,2.73
2017-08-06T08:34:09.987Z,2.93
2017-08-06T08:36:37.536Z,2.73
2017-08-06T08:39:05.065Z,3.00
2017-08-06T08:41:32.588Z,2.87
2017-08-06T08:44:00.116Z,3.00
2017-08-06T08:46:27.634Z,2.90
2017-08-06T08:48:55.146Z,2.93
2017-08-06T08:51:22.658Z,2.60
2017-08-06T08:53:50.181Z,2.80
2017-08-06T08:56:17.677Z,2.80
2017-08-06T08:58:45.199Z,2.87
2017-08-06T09:01:12.711Z,2.40
2017-08-06T09:03:40.235Z,3.00
2017-08-06T09:06:07.762Z,2.60
2017-08-06T09:08:35.472Z,2.70
2017-08-06T09:11:03.171Z,2.73
2017-08-06T09:13:30.738Z,3.20
2017-08-06T09:15:59.063Z,3.57
2017-08-06T09:18:26.570Z,2.50
2017-08-06T09:20:54.889Z,2.60
2017-08-06T09:23:22.395Z,2.37
2017-08-06T09:25:49.970Z,2.47
2017-08-06T09:28:17.493Z,2.60
2017-08-06T09:30:45.001Z,2.40
2017-08-06T09:33:13.289Z,2.70
2017-08-06T09:35:40.800Z,2.83
2017-08-06T09:38:08.323Z,2.50
2017-08-06T09:40:35.846Z,2.73
2017-08-06T09:43:03.364Z,3.10
2017-08-06T09:45:30.882Z,3.10
2017-08-06T09:47:58.394Z,3.10
2017-08-06T09:50:25.941Z,2.60
2017-08-06T09:52:53.471Z,2.93
2017-08-06T09:55:21.015Z,2.50
2017-08-06T09:57:48.537Z,2.40
2017-08-06T10:00:16.042Z,2.37
2017-08-06T10:02:43.565Z,2.67
2017-08-06T10:05:11.074Z,2.80
2017-08-06T10:07:38.624Z,2.83
2017-08-06T10:10:06.251Z,2.30
2017-08-06T10:12:33.829Z,3.00
2017-08-06T10:15:01.502Z,2.43
2017-08-06T10:17:29.151Z,2.83
2017-08-06T10:19:56.727Z,2.60
2017-08-06T10:22:24.514Z,2.80
2017-08-06T10:24:52.062Z,2.63
2017-08-06T10:27:19.586Z,3.17
2017-08-06T10:29:47.132Z,2.80
2017-08-06T10:32:14.664Z,3.00
2017-08-06T10:34:42.190Z,2.70
2017-08-06T10:37:10.518Z,3.13
2017-08-06T10:39:38.046Z,3.50
2017-08-06T10:42:05.681Z,4.73
2017-08-06T10:44:33.288Z,4.00
2017-08-06T10:47:00.955Z,2.70
2017-08-06T10:49:28.543Z,2.93
2017-08-06T10:51:56.075Z,3.13
2017-08-06T10:54:23.598Z,2.90
2017-08-06T10:56:51.155Z,3.17
2017-08-06T10:59:18.717Z,2.57
2017-08-06T11:01:46.295Z,5.57
2017-08-06T11:04:13.845Z,5.23
2017-08-06T11:06:41.472Z,2.90
2017-08-06T11:09:09.773Z,2.90
2017-08-06T11:11:38.068Z,4.00
2017-08-06T11:14:05.601Z,3.27
2017-08-06T11:16:33.131Z,3.73
2017-08-06T11:19:00.677Z,2.90
2017-08-06T11:21:28.341Z,2.93
2017-08-06T11:23:56.209Z,4.20
2017-08-06T11:26:23.796Z,3.73
2017-08-06T11:28:51.319Z,3.57
2017-08-06T11:31:18.934Z,4.00
2017-08-06T11:33:47.293Z,3.67
2017-08-06T11:36:14.815Z,3.30
2017-08-06T11:38:43.421Z,3.53
2017-08-06T11:41:11.052Z,3.70
2017-08-06T11:43:38.593Z,3.67
2017-08-06T11:46:06.441Z,3.30
2017-08-06T11:48:34.963Z,4.10
2017-08-06T11:51:03.916Z,3.30
2017-08-06T11:53:31.834Z,3.90
2017-08-06T11:55:59.791Z,5.50
2017-08-06T11:58:27.561Z,4.37
2017-08-06T12:00:55.480Z,4.03
2017-08-06T12:03:34.457Z,4.43
2017-08-06T12:06:06.892Z,3.93
2017-08-06T12:08:46.153Z,4.60
2017-08-06T12:14:20.928Z,4.90
2017-08-06T12:32:27.921Z,5.53
2017-08-06T12:34:55.680Z,6.10
2017-08-06T12:37:27.617Z,7.20
2017-08-06T12:39:57.140Z,7.05
2017-08-06T12:42:36.280Z,6.65
2017-08-06T12:45:16.227Z,5.78
2017-08-06T12:47:43.985Z,7.30
2017-08-06T12:53:19.702Z,7.33
2017-08-06T12:56:03.500Z,7.45
2017-08-06T12:58:32.893Z,7.05
2017-08-06T13:01:17.242Z,6.75
2017-08-06T13:03:47.027Z,7.60
2017-08-06T13:06:16.415Z,8.10
2017-08-06T13:11:30.863Z,6.73
2017-08-06T13:14:11.374Z,8.20
2017-08-06T13:16:44.200Z,7.80
2017-08-06T13:19:14.886Z,7.50
2017-08-06T13:21:48.107Z,7.20
2017-08-06T13:24:27.312Z,8.52
2017-08-06T13:26:59.736Z,7.13
2017-08-06T13:29:27.877Z,7.50
2017-08-06T13:31:58.132Z,7.73
2017-08-06T13:34:33.832Z,7.90
2017-08-06T13:37:04.857Z,8.17
2017-08-06T13:39:48.394Z,7.50
2017-08-06T13:42:16.348Z,8.23
2017-08-06T13:44:45.093Z,6.87
2017-08-06T13:47:24.028Z,7.30
2017-08-06T13:49:54.231Z,6.67
2017-08-06T13:52:22.073Z,6.13
2017-08-06T13:55:04.920Z,6.40
2017-08-06T13:57:32.894Z,5.80
2017-08-06T14:00:00.665Z,5.93
2017-08-06T14:02:33.618Z,5.70
2017-08-06T14:05:03.493Z,5.23
2017-08-06T14:07:31.464Z,4.50
2017-08-06T14:09:59.432Z,5.57
2017-08-06T14:12:27.901Z,8.20
2017-08-06T14:15:06.074Z,5.27
2017-08-06T14:17:34.652Z,4.80
2017-08-06T14:20:02.412Z,6.30
2017-08-06T14:22:30.100Z,5.40
2017-08-06T14:24:58.415Z,6.00
2017-08-06T14:27:26.007Z,5.77
2017-08-06T14:29:54.601Z,5.47
2017-08-06T14:32:22.166Z,5.80
2017-08-06T14:34:50.443Z,5.97
2017-08-06T14:37:18.276Z,4.97
2017-08-06T14:39:46.312Z,4.70
2017-08-06T14:42:15.048Z,4.67
2017-08-06T14:44:42.964Z,4.87
2017-08-06T14:47:11.310Z,5.07
2017-08-06T14:49:39.003Z,4.90
2017-08-06T14:52:10.080Z,4.03
2017-08-06T14:54:37.838Z,4.87
2017-08-06T14:57:05.745Z,4.37
2017-08-06T14:59:33.486Z,4.87
2017-08-06T15:02:01.387Z,4.10
2017-08-06T15:04:29.244Z,5.00
2017-08-06T15:06:56.898Z,4.63
2017-08-06T15:09:24.603Z,4.80
2017-08-06T15:11:52.142Z,4.67
2017-08-06T15:14:19.631Z,4.43
2017-08-06T15:16:47.134Z,4.50
2017-08-06T15:19:14.641Z,4.73
2017-08-06T15:21:42.129Z,3.83
2017-08-06T15:24:09.638Z,3.80
2017-08-06T15:26:37.132Z,4.53
2017-08-06T15:29:04.687Z,3.87
2017-08-06T15:31:32.334Z,4.73
2017-08-06T15:33:59.915Z,3.83
2017-08-06T15:36:27.609Z,4.47
2017-08-06T15:38:55.409Z,4.07
2017-08-06T15:41:23.079Z,3.70
2017-08-06T15:43:51.431Z,4.30
2017-08-06T15:46:19.220Z,3.90
2017-08-06T15:48:46.776Z,4.60
2017-08-06T15:51:14.305Z,3.73
2017-08-06T15:53:41.872Z,4.43
2017-08-06T15:56:10.219Z,4.13
2017-08-06T15:58:37.810Z,4.00
2017-08-06T16:01:05.747Z,4.77
2017-08-06T16:03:33.296Z,3.80
2017-08-06T16:06:00.970Z,4.20
2017-08-06T16:08:29.007Z,3.97
2017-08-06T16:10:57.646Z,4.83
2017-08-06T16:13:25.187Z,4.27
2017-08-06T16:15:52.910Z,4.10
2017-08-06T16:18:21.233Z,4.30
2017-08-06T16:20:48.810Z,3.90
2017-08-06T16:23:17.048Z,4.30
2017-08-06T16:25:45.727Z,4.20
2017-08-06T16:28:14.484Z,4.10
2017-08-06T16:30:42.296Z,3.90
2017-08-06T16:33:10.009Z,4.40
2017-08-06T16:35:37.613Z,4.20
2017-08-06T16:38:06.590Z,3.80
2017-08-06T16:40:35.092Z,4.30
2017-08-06T16:43:03.581Z,4.83
2017-08-06T16:45:31.649Z,4.57
2017-08-06T16:47:59.604Z,3.70
2017-08-06T16:50:29.246Z,5.30
2017-08-06T16:52:56.934Z,6.30
2017-08-06T16:55:26.185Z,4.87
2017-08-06T16:57:53.856Z,4.80
2017-08-06T17:00:21.717Z,5.30
2017-08-06T17:02:49.583Z,5.03
2017-08-06T17:05:17.261Z,5.17
2017-08-06T17:07:45.179Z,5.17
2017-08-06T17:10:12.769Z,4.40
2017-08-06T17:12:40.352Z,4.33
2017-08-06T17:15:07.974Z,4.97
2017-08-06T17:17:35.563Z,7.30
2017-08-06T17:20:04.691Z,4.97
2017-08-06T17:22:32.319Z,5.53
2017-08-06T17:25:00.115Z,4.80
2017-08-06T17:27:27.837Z,6.37
2017-08-06T17:29:55.627Z,4.10
2017-08-06T17:32:23.225Z,5.10
2017-08-06T17:34:50.821Z,6.00
2017-08-06T17:37:18.400Z,5.13
2017-08-06T17:39:45.958Z,4.10
2017-08-06T17:42:13.596Z,4.70
2017-08-06T17:44:41.216Z,4.70
2017-08-06T17:47:08.893Z,5.10
2017-08-06T17:49:36.723Z,4.30
2017-08-06T17:52:04.652Z,5.17
2017-08-06T17:54:33.479Z,6.30
2017-08-06T17:57:02.324Z,5.03
2017-08-06T17:59:29.870Z,5.10
2017-08-06T18:01:58.787Z,5.03
2017-08-06T18:04:26.590Z,5.07
2017-08-06T18:06:54.431Z,6.10
2017-08-06T18:09:32.986Z,5.70
2017-08-06T18:12:02.004Z,7.67
2017-08-06T18:14:29.864Z,5.13
2017-08-06T18:16:57.644Z,5.70
2017-08-06T18:19:25.599Z,5.17
2017-08-06T18:21:53.986Z,6.00
2017-08-06T18:27:04.634Z,6.00
2017-08-06T18:29:32.617Z,4.82
2017-08-06T18:32:08.238Z,4.80
2017-08-06T18:34:36.122Z,4.70
2017-08-06T18:37:04.909Z,5.95
2017-08-06T18:39:33.123Z,5.13
2017-08-06T18:42:01.912Z,7.03
2017-08-06T18:44:31.520Z,8.93
2017-08-06T18:47:00.506Z,7.12
2017-08-06T18:49:31.353Z,7.35
2017-08-06T18:52:17.761Z,7.65
2017-08-06T18:54:51.681Z,8.05
2017-08-06T18:57:28.595Z,6.35
2017-08-06T19:00:01.025Z,5.55
2017-08-06T19:02:36.233Z,6.40
2017-08-06T19:05:18.362Z,5.85
2017-08-06T19:10:47.067Z,7.20
2017-08-06T19:13:26.608Z,6.85
2017-08-06T19:16:05.197Z,7.10
2017-08-06T19:18:33.427Z,6.65
2017-08-06T19:23:48.024Z,6.70
2017-08-06T19:26:16.151Z,6.50
2017-08-06T19:28:47.537Z,7.40
2017-08-06T19:31:20.147Z,6.30
2017-08-06T19:33:58.842Z,7.15
2017-08-06T19:36:27.324Z,8.00
2017-08-06T19:39:06.801Z,6.45
2017-08-06T19:41:35.817Z,6.80
2017-08-06T19:44:16.697Z,7.03
2017-08-06T19:46:45.672Z,5.87
2017-08-06T19:49:13.761Z,6.80
2017-08-06T19:51:41.278Z,9.68
2017-08-06T19:54:09.564Z,6.40
2017-08-06T19:56:37.825Z,7.15
2017-08-06T19:59:05.360Z,7.15
2017-08-06T20:01:32.914Z,7.12
2017-08-06T20:04:01.359Z,6.82
2017-08-06T20:06:28.941Z,6.10
2017-08-06T20:08:56.470Z,7.32
2017-08-06T20:11:23.989Z,7.70
2017-08-06T20:13:51.485Z,8.82
2017-08-06T20:16:19.047Z,7.25
2017-08-06T20:18:46.557Z,7.65
2017-08-06T20:21:14.107Z,8.43
2017-08-06T20:23:41.605Z,7.75
2017-08-06T20:26:09.110Z,7.28
2017-08-06T20:28:36.621Z,6.35
2017-08-06T20:31:09.509Z,6.87
2017-08-06T20:33:37.729Z,6.65
2017-08-06T20:36:06.502Z,6.37
2017-08-06T20:38:37.756Z,6.47
2017-08-06T20:41:06.664Z,6.60
2017-08-06T20:43:36.066Z,6.72
2017-08-06T20:46:06.164Z,6.57
2017-08-06T20:48:35.369Z,6.37
2017-08-06T20:51:03.427Z,6.45
2017-08-06T20:53:32.350Z,7.32
2017-08-06T20:56:01.429Z,6.97
2017-08-06T20:58:29.194Z,6.80
2017-08-06T21:01:00.232Z,8.05
2017-08-06T21:03:28.842Z,7.12
2017-08-06T21:05:58.549Z,7.70
2017-08-06T21:08:28.918Z,8.55
2017-08-06T21:10:56.949Z,7.62
2017-08-06T21:13:28.892Z,8.15
2017-08-06T21:15:57.161Z,8.63
2017-08-06T21:18:25.854Z,7.03
2017-08-06T21:21:12.442Z,8.63
2017-08-06T21:23:44.940Z,7.32
2017-08-06T21:26:13.116Z,8.00
2017-08-06T21:28:52.825Z,8.80
2017-08-06T21:31:22.390Z,7.60
2017-08-06T21:33:52.179Z,8.40
2017-08-06T21:36:21.354Z,8.02
2017-08-06T21:38:50.463Z,7.80
2017-08-06T21:41:21.218Z,7.37
2017-08-06T21:43:53.177Z,8.68
2017-08-06T21:46:22.471Z,6.85
2017-08-06T21:48:53.358Z,7.15
2017-08-06T21:54:28.234Z,7.97
2017-08-06T21:56:59.802Z,7.18
2017-08-06T22:15:45.843Z,8.52
2017-08-06T22:18:22.787Z,8.20
2017-08-06T22:23:49.486Z,8.57
2017-08-06T22:38:19.851Z,8.85
2017-08-06T23:53:34.320Z,7.90
